Terminal Aerodrome Forecast
Issued by NWS Duluth, MN

Home | Current Version | Previous Version | Text Only | Print | Product List | Glossary On
Versions: 1 2 3 4 5 6 7 8 9 10 11 12 13 14 15 16
000
FTUS43 KDLH 290523
TAFDLH
TAF
KDLH 290523Z 2906/3006 14007KT P6SM VCSH SCT035 BKN060
      TEMPO 2906/2908 5SM BR BKN005
     FM290800 15006KT 5SM BR VCSH SCT005 BKN020
     FM291400 18010KT P6SM SCT040 BKN100
     FM291800 21011KT P6SM VCTS BKN100CB
     FM300100 27007KT P6SM SCT040=

USA.gov is the U.S. government's official web portal to all federal, state and local government web resources and services.